Time;durP1;ratioP1;P1;durP2;ratioP2;P2;SDS_P1;SDS_P2;PMS_P1;PMS_P2;Temp;Humidity;BMP_temperature;BMP_pressure;BME280_temperature;BME280_humidity;BME280_pressure;Samples;Min_cycle;Max_cycle;Signal;HPM_P1;HPM_P2
2023/01/01 00:02:10;;;;;;;39.00;21.58;;;;;;;;;;5027855;28;20073;-68
2023/01/01 00:04:36;;;;;;;35.30;21.10;;;;;;;;;;5027568;28;20120;-68
2023/01/01 00:07:02;;;;;;;46.78;23.67;;;;;;;;;;5027712;28;20626;-68
2023/01/01 00:12:12;;;;;;;45.90;25.92;;;;;;;;;;5047864;28;20084;-68
2023/01/01 00:14:41;;;;;;;50.88;29.58;;;;;;;;;;5049765;28;20073;-68
2023/01/01 00:17:07;;;;;;;50.03;28.73;;;;;;;;;;5036342;28;20410;-68
2023/01/01 00:19:33;;;;;;;55.40;37.22;;;;;;;;;;5028337;28;20050;-68
2023/01/01 00:21:59;;;;;;;53.45;32.90;;;;;;;;;;5029896;28;20455;-68
2023/01/01 00:24:25;;;;;;;59.03;36.63;;;;;;;;;;5030637;28;20034;-68
2023/01/01 00:26:51;;;;;;;62.13;39.20;;;;;;;;;;5030062;28;20045;-68
2023/01/01 00:29:17;;;;;;;68.15;42.10;;;;;;;;;;5028848;28;20041;-68
2023/01/01 00:31:44;;;;;;;65.60;42.22;;;;;;;;;;5030100;28;20034;-68
2023/01/01 00:34:10;;;;;;;68.20;40.83;;;;;;;;;;5028244;28;20045;-68
2023/01/01 00:36:36;;;;;;;68.03;41.53;;;;;;;;;;5030576;28;20076;-68
2023/01/01 00:39:02;;;;;;;58.33;34.85;;;;;;;;;;5028674;28;20073;-69
2023/01/01 00:41:28;;;;;;;52.50;31.55;;;;;;;;;;5028485;28;20132;-69
2023/01/01 00:43:54;;;;;;;58.13;32.25;;;;;;;;;;5028667;28;20129;-69
2023/01/01 00:46:20;;;;;;;60.05;32.65;;;;;;;;;;5028552;28;20172;-69
2023/01/01 00:48:46;;;;;;;54.72;32.28;;;;;;;;;;5028250;28;20052;-69
2023/01/01 00:51:12;;;;;;;43.72;27.70;;;;;;;;;;5028345;28;20094;-69
2023/01/01 00:53:38;;;;;;;42.65;24.60;;;;;;;;;;5030032;28;20576;-69
2023/01/01 00:56:05;;;;;;;45.55;24.55;;;;;;;;;;5030056;28;20037;-68
2023/01/01 00:58:31;;;;;;;37.25;22.73;;;;;;;;;;5028555;28;20042;-68
2023/01/01 01:00:57;;;;;;;41.20;24.35;;;;;;;;;;5028576;28;20041;-68
2023/01/01 01:03:29;;;;;;;35.80;20.77;;;;;;;;;;5027612;28;20045;-68
2023/01/01 01:05:55;;;;;;;36.50;22.08;;;;;;;;;;5028195;28;20459;-68
2023/01/01 01:08:21;;;;;;;40.65;21.65;;;;;;;;;;5028338;28;20059;-68
2023/01/01 01:10:47;;;;;;;38.50;20.70;;;;;;;;;;5034694;28;20137;-68
2023/01/01 01:13:13;;;;;;;35.17;19.40;;;;;;;;;;5047448;28;20087;-68
2023/01/01 01:15:39;;;;;;;39.38;20.98;;;;;;;;;;5049466;28;20126;-68
2023/01/01 01:18:05;;;;;;;41.33;23.15;;;;;;;;;;5047448;28;20044;-68
2023/01/01 01:20:31;;;;;;;33.25;18.83;;;;;;;;;;5047827;28;20053;-68
2023/01/01 01:22:57;;;;;;;39.63;20.65;;;;;;;;;;5049271;28;20403;-68
2023/01/01 01:25:23;;;;;;;37.03;19.45;;;;;;;;;;5044846;28;20041;-68
2023/01/01 01:27:49;;;;;;;34.08;21.45;;;;;;;;;;5027877;28;20507;-68
2023/01/01 01:30:15;;;;;;;38.72;21.02;;;;;;;;;;5029606;28;20038;-68
2023/01/01 01:32:40;;;;;;;36.42;21.27;;;;;;;;;;5027526;28;20061;-68
2023/01/01 01:35:07;;;;;;;36.60;20.17;;;;;;;;;;5011546;28;20068;-68
2023/01/01 01:37:33;;;;;;;48.47;24.35;;;;;;;;;;5027769;28;20045;-68
2023/01/01 01:39:59;;;;;;;38.38;22.40;;;;;;;;;;5029232;28;20068;-68
2023/01/01 01:42:25;;;;;;;38.50;21.85;;;;;;;;;;5028909;28;20470;-68
2023/01/01 01:44:56;;;;;;;36.03;22.98;;;;;;;;;;5029034;28;20077;-68
2023/01/01 01:47:31;;;;;;;34.60;19.98;;;;;;;;;;5029039;28;20603;-68
2023/01/01 01:50:25;;;;;;;31.13;19.38;;;;;;;;;;5027394;28;20034;-68
2023/01/01 01:53:12;;;;;;;43.45;21.23;;;;;;;;;;5029038;28;20076;-68
2023/01/01 01:55:50;;;;;;;38.20;20.38;;;;;;;;;;5028753;28;20107;-68
2023/01/01 01:58:16;;;;;;;36.03;19.08;;;;;;;;;;5028880;28;20072;-68
2023/01/01 02:00:42;;;;;;;40.15;18.60;;;;;;;;;;5027692;28;20049;-68
2023/01/01 02:03:09;;;;;;;35.33;17.67;;;;;;;;;;5028421;28;20052;-68
2023/01/01 02:05:36;;;;;;;33.70;18.17;;;;;;;;;;5028587;28;20046;-68
2023/01/01 02:08:05;;;;;;;40.05;19.35;;;;;;;;;;5027479;28;20411;-68
2023/01/01 02:10:31;;;;;;;30.70;16.20;;;;;;;;;;5031526;28;20049;-69
2023/01/01 02:12:57;;;;;;;28.63;16.42;;;;;;;;;;5048691;28;20045;-69
2023/01/01 02:15:27;;;;;;;32.67;16.70;;;;;;;;;;5048653;28;20039;-68
2023/01/01 02:18:06;;;;;;;31.77;16.50;;;;;;;;;;5048592;28;20090;-68
2023/01/01 02:20:35;;;;;;;24.17;13.05;;;;;;;;;;5047043;28;20061;-68
2023/01/01 02:23:20;;;;;;;35.92;15.57;;;;;;;;;;5047166;28;20041;-68
2023/01/01 02:25:49;;;;;;;26.15;14.52;;;;;;;;;;5042031;28;20048;-68
2023/01/01 02:28:21;;;;;;;22.60;13.82;;;;;;;;;;5031608;28;20483;-68
2023/01/01 02:30:47;;;;;;;;;;;;;;;;;;5031538;28;20053;-68
2023/01/01 02:33:15;;;;;;;26.90;12.63;;;;;;;;;;5030606;28;20086;-68
2023/01/01 02:35:59;;;;;;;30.77;12.65;;;;;;;;;;5031042;28;20053;-68
2023/01/01 02:38:40;;;;;;;24.85;11.48;;;;;;;;;;5032698;28;20124;-68
2023/01/01 02:41:11;;;;;;;25.58;10.70;;;;;;;;;;5030998;28;20083;-68
2023/01/01 02:43:37;;;;;;;22.65;10.98;;;;;;;;;;5030938;28;20408;-68
2023/01/01 02:46:07;;;;;;;25.98;10.52;;;;;;;;;;5032179;28;20092;-68
2023/01/01 02:48:36;;;;;;;29.65;11.35;;;;;;;;;;5030753;28;20407;-68
2023/01/01 02:51:04;;;;;;;23.20;9.13;;;;;;;;;;5031852;28;20128;-68
2023/01/01 02:53:33;;;;;;;17.90;9.80;;;;;;;;;;5032273;28;20484;-68
2023/01/01 02:56:05;;;;;;;22.38;9.40;;;;;;;;;;5031529;28;20516;-68
2023/01/01 03:01:33;;;;;;;25.13;8.43;;;;;;;;;;5030457;28;20412;-68
2023/01/01 03:04:05;;;;;;;17.17;8.30;;;;;;;;;;5030909;28;20119;-68
2023/01/01 03:06:37;;;;;;;23.67;7.93;;;;;;;;;;5031655;28;20052;-68
2023/01/01 03:09:04;;;;;;;16.05;8.07;;;;;;;;;;5030454;28;20095;-68
2023/01/01 03:11:49;;;;;;;24.08;7.05;;;;;;;;;;5042915;28;20043;-68
2023/01/01 03:14:20;;;;;;;16.05;6.45;;;;;;;;;;5051751;28;20214;-68
2023/01/01 03:16:49;;;;;;;20.02;7.05;;;;;;;;;;5033291;28;20036;-68
2023/01/01 03:19:17;;;;;;;21.35;5.85;;;;;;;;;;5051521;28;20057;-68
2023/01/01 03:21:51;;;;;;;12.50;5.35;;;;;;;;;;5049981;28;20402;-68
2023/01/01 03:24:26;;;;;;;14.93;4.30;;;;;;;;;;5051666;28;20503;-68
2023/01/01 03:26:54;;;;;;;19.60;4.85;;;;;;;;;;5035204;28;20103;-68
2023/01/01 03:29:21;;;;;;;13.85;4.28;;;;;;;;;;5030309;28;20079;-68
2023/01/01 03:31:48;;;;;;;12.50;4.07;;;;;;;;;;5030745;28;20185;-68
2023/01/01 03:34:18;;;;;;;15.65;4.35;;;;;;;;;;5031685;28;20291;-68
2023/01/01 03:36:46;;;;;;;10.85;4.18;;;;;;;;;;5030182;28;20049;-68
2023/01/01 03:39:21;;;;;;;11.57;3.55;;;;;;;;;;5031596;28;20033;-68
2023/01/01 03:41:52;;;;;;;9.43;3.30;;;;;;;;;;5031249;28;20038;-68
2023/01/01 03:44:20;;;;;;;10.00;3.33;;;;;;;;;;5031535;28;20403;-68
2023/01/01 03:46:47;;;;;;;8.63;3.00;;;;;;;;;;5029394;28;20049;-68
2023/01/01 03:49:13;;;;;;;11.98;3.38;;;;;;;;;;5030370;28;20540;-68
2023/01/01 03:51:57;;;;;;;16.05;3.70;;;;;;;;;;5030963;28;20041;-68
2023/01/01 03:54:43;;;;;;;12.15;3.25;;;;;;;;;;5031187;28;20463;-68
2023/01/01 03:57:27;;;;;;;12.32;3.30;;;;;;;;;;5031151;28;20045;-68
2023/01/01 04:00:02;;;;;;;9.30;2.83;;;;;;;;;;5031261;28;20387;-68
2023/01/01 04:02:31;;;;;;;15.98;3.17;;;;;;;;;;5030400;28;20176;-68
2023/01/01 04:04:59;;;;;;;14.27;3.25;;;;;;;;;;5029732;28;20041;-67
2023/01/01 04:07:25;;;;;;;12.70;3.10;;;;;;;;;;5030871;28;20103;-67
2023/01/01 04:09:51;;;;;;;6.53;2.60;;;;;;;;;;5030708;28;20138;-67
2023/01/01 04:12:18;;;;;;;12.35;2.80;;;;;;;;;;5049705;28;20540;-67
2023/01/01 04:14:44;;;;;;;9.20;2.65;;;;;;;;;;5050472;28;20116;-67
2023/01/01 04:17:11;;;;;;;12.38;2.80;;;;;;;;;;5050245;28;20551;-67
2023/01/01 04:19:37;;;;;;;10.98;2.75;;;;;;;;;;5050456;28;20140;-67
2023/01/01 04:22:03;;;;;;;11.38;3.75;;;;;;;;;;5048814;28;20458;-67
2023/01/01 04:24:29;;;;;;;7.50;2.83;;;;;;;;;;5048650;28;20107;-67
2023/01/01 04:26:56;;;;;;;9.93;3.05;;;;;;;;;;5034069;28;20048;-67
2023/01/01 04:29:22;;;;;;;10.70;2.25;;;;;;;;;;5030555;28;20041;-67
2023/01/01 04:31:48;;;;;;;10.68;2.97;;;;;;;;;;5030122;28;20041;-67
2023/01/01 04:34:14;;;;;;;14.82;2.97;;;;;;;;;;5028900;28;20095;-67
2023/01/01 04:36:40;;;;;;;12.73;2.80;;;;;;;;;;5030414;28;20046;-67
2023/01/01 04:39:06;;;;;;;12.77;3.25;;;;;;;;;;5029775;28;20125;-67
2023/01/01 04:41:32;;;;;;;11.65;2.80;;;;;;;;;;5028706;28;20538;-67
2023/01/01 04:43:59;;;;;;;10.35;3.05;;;;;;;;;;5028462;28;20056;-67
2023/01/01 04:46:25;;;;;;;10.15;2.83;;;;;;;;;;5028607;28;20125;-67
2023/01/01 04:48:51;;;;;;;10.63;2.90;;;;;;;;;;5028044;28;20053;-67
2023/01/01 04:51:18;;;;;;;10.07;2.85;;;;;;;;;;5030350;28;20140;-67
2023/01/01 04:53:43;;;;;;;10.63;2.58;;;;;;;;;;5028174;28;20053;-67
2023/01/01 04:56:13;;;;;;;11.13;2.58;;;;;;;;;;5028582;28;20037;-67
2023/01/01 04:58:40;;;;;;;10.90;2.53;;;;;;;;;;5029878;28;20480;-67
2023/01/01 05:01:07;;;;;;;9.45;2.75;;;;;;;;;;5029670;28;20045;-67
2023/01/01 05:03:33;;;;;;;7.72;2.85;;;;;;;;;;5029784;28;20057;-67
2023/01/01 05:06:03;;;;;;;9.13;3.42;;;;;;;;;;5028445;28;20427;-67
2023/01/01 05:08:33;;;;;;;8.18;2.10;;;;;;;;;;5029387;28;20041;-67
2023/01/01 05:11:00;;;;;;;8.20;2.20;;;;;;;;;;5026619;28;20049;-67
2023/01/01 05:13:26;;;;;;;9.90;1.90;;;;;;;;;;5047836;28;20044;-67
2023/01/01 05:15:52;;;;;;;8.32;2.22;;;;;;;;;;5048942;28;20048;-67
2023/01/01 05:18:18;;;;;;;10.48;2.08;;;;;;;;;;5049616;28;20037;-67
2023/01/01 05:20:44;;;;;;;10.10;2.10;;;;;;;;;;5049176;28;20064;-67
2023/01/01 05:23:10;;;;;;;8.73;2.42;;;;;;;;;;5049162;28;20402;-67
2023/01/01 05:25:36;;;;;;;8.50;2.05;;;;;;;;;;5043476;28;20038;-67
2023/01/01 05:28:02;;;;;;;4.32;1.50;;;;;;;;;;5029761;28;20132;-67
2023/01/01 05:30:28;;;;;;;7.07;2.03;;;;;;;;;;5027512;28;20060;-67
2023/01/01 05:32:54;;;;;;;6.20;1.58;;;;;;;;;;5029182;28;20488;-67
2023/01/01 05:35:20;;;;;;;10.70;1.95;;;;;;;;;;5027863;28;20048;-67
2023/01/01 05:37:46;;;;;;;7.20;1.60;;;;;;;;;;5027702;28;20543;-67
2023/01/01 05:40:12;;;;;;;8.93;1.50;;;;;;;;;;5029126;28;20041;-67
2023/01/01 05:42:38;;;;;;;8.07;1.80;;;;;;;;;;5028869;28;20091;-67
2023/01/01 05:45:05;;;;;;;7.57;1.73;;;;;;;;;;5027478;28;20048;-67
2023/01/01 05:47:30;;;;;;;7.15;1.45;;;;;;;;;;5028783;28;20038;-67
2023/01/01 05:49:56;;;;;;;5.55;1.27;;;;;;;;;;5029145;28;20044;-67
2023/01/01 05:52:22;;;;;;;5.10;1.30;;;;;;;;;;5028894;28;20518;-67
2023/01/01 05:54:48;;;;;;;4.50;1.45;;;;;;;;;;5029179;28;20112;-67
2023/01/01 05:57:14;;;;;;;7.63;1.38;;;;;;;;;;5027700;28;20037;-68
2023/01/01 05:59:40;;;;;;;5.20;1.08;;;;;;;;;;5026441;28;20515;-68
2023/01/01 06:02:06;;;;;;;6.18;1.10;;;;;;;;;;5028803;28;20045;-68
2023/01/01 06:04:32;;;;;;;6.65;1.55;;;;;;;;;;5029057;28;20072;-68
2023/01/01 06:06:58;;;;;;;5.43;1.27;;;;;;;;;;5028607;28;20420;-68
2023/01/01 06:09:24;;;;;;;2.83;1.48;;;;;;;;;;5027359;28;20038;-68
2023/01/01 06:11:50;;;;;;;4.88;1.20;;;;;;;;;;5043874;28;20044;-68
2023/01/01 06:14:16;;;;;;;4.85;1.08;;;;;;;;;;5046742;28;20495;-68
2023/01/01 06:16:42;;;;;;;5.43;1.30;;;;;;;;;;5048788;28;20470;-68
2023/01/01 06:19:08;;;;;;;4.18;1.40;;;;;;;;;;5046971;28;20052;-68
2023/01/01 06:21:34;;;;;;;5.00;1.33;;;;;;;;;;5046962;28;20490;-68
2023/01/01 06:24:00;;;;;;;5.47;1.20;;;;;;;;;;5048305;28;20040;-68
2023/01/01 06:26:28;;;;;;;5.28;1.10;;;;;;;;;;5034336;28;20049;-68
2023/01/01 06:28:54;;;;;;;4.40;1.42;;;;;;;;;;5028396;28;20072;-68
2023/01/01 06:31:21;;;;;;;4.70;1.45;;;;;;;;;;5028327;28;20076;-68
2023/01/01 06:33:47;;;;;;;5.60;1.55;;;;;;;;;;5026951;28;20116;-68
2023/01/01 06:36:14;;;;;;;4.70;1.27;;;;;;;;;;5026823;28;20042;-68
2023/01/01 06:38:42;;;;;;;5.63;1.30;;;;;;;;;;5028719;28;20090;-68
2023/01/01 06:41:11;;;;;;;6.95;1.27;;;;;;;;;;5028507;28;20042;-68
2023/01/01 06:43:37;;;;;;;6.80;1.38;;;;;;;;;;5028114;28;20555;-68
2023/01/01 06:46:03;;;;;;;6.22;1.40;;;;;;;;;;5028803;28;20135;-68
2023/01/01 06:48:30;;;;;;;4.72;1.63;;;;;;;;;;5027049;28;20054;-68
2023/01/01 06:50:57;;;;;;;3.78;1.20;;;;;;;;;;5028131;28;20049;-68
2023/01/01 06:53:24;;;;;;;5.47;1.55;;;;;;;;;;5026939;28;20045;-68
2023/01/01 06:55:50;;;;;;;6.35;1.83;;;;;;;;;;5027161;28;20045;-68
2023/01/01 06:58:16;;;;;;;6.47;1.50;;;;;;;;;;5026685;28;20425;-68
2023/01/01 07:00:42;;;;;;;7.22;1.95;;;;;;;;;;5028375;28;20040;-68
2023/01/01 07:03:09;;;;;;;10.13;1.48;;;;;;;;;;5027098;28;20042;-68
2023/01/01 07:05:35;;;;;;;7.25;1.50;;;;;;;;;;5026935;28;20045;-68
2023/01/01 07:08:01;;;;;;;7.90;1.52;;;;;;;;;;5026590;28;20052;-68
2023/01/01 07:10:27;;;;;;;6.13;2.10;;;;;;;;;;5030825;28;20427;-68
2023/01/01 07:12:53;;;;;;;10.02;1.83;;;;;;;;;;5050363;28;20083;-68
2023/01/01 07:15:19;;;;;;;9.57;1.83;;;;;;;;;;5051470;28;20047;-68
2023/01/01 07:17:46;;;;;;;12.45;1.80;;;;;;;;;;5050161;28;20499;-68
2023/01/01 07:20:12;;;;;;;5.75;1.50;;;;;;;;;;5050268;28;20048;-68
2023/01/01 07:22:39;;;;;;;6.88;1.60;;;;;;;;;;5049574;28;20059;-68
2023/01/01 07:25:05;;;;;;;6.32;1.48;;;;;;;;;;5050400;28;20375;-68
2023/01/01 07:27:31;;;;;;;7.72;1.52;;;;;;;;;;5031848;28;20596;-68
2023/01/01 07:29:57;;;;;;;8.68;1.67;;;;;;;;;;5029503;28;20049;-68
2023/01/01 07:32:23;;;;;;;10.85;1.98;;;;;;;;;;5031471;28;20520;-68
2023/01/01 07:34:49;;;;;;;7.75;1.70;;;;;;;;;;5029826;28;20041;-68
2023/01/01 07:37:15;;;;;;;8.55;2.50;;;;;;;;;;5013409;28;20546;-68
2023/01/01 07:39:41;;;;;;;11.75;1.70;;;;;;;;;;5031203;28;20472;-68
2023/01/01 07:42:07;;;;;;;9.90;1.63;;;;;;;;;;5029945;28;20400;-68
2023/01/01 07:44:33;;;;;;;7.80;1.65;;;;;;;;;;5029618;28;20119;-68
2023/01/01 07:47:08;;;;;;;9.45;1.83;;;;;;;;;;5031411;28;20128;-68
2023/01/01 07:49:34;;;;;;;10.40;1.80;;;;;;;;;;5030033;28;20045;-68
2023/01/01 07:52:00;;;;;;;9.13;1.85;;;;;;;;;;5030604;28;20091;-68
2023/01/01 07:54:26;;;;;;;7.03;1.85;;;;;;;;;;5030739;28;20080;-68
2023/01/01 07:56:52;;;;;;;10.48;1.77;;;;;;;;;;5029722;28;20037;-68
2023/01/01 07:59:18;;;;;;;10.73;1.80;;;;;;;;;;5029174;28;20045;-68
2023/01/01 08:01:44;;;;;;;13.88;1.85;;;;;;;;;;5029501;28;20041;-68
2023/01/01 08:04:10;;;;;;;8.63;1.60;;;;;;;;;;5031030;28;20495;-68
2023/01/01 08:06:37;;;;;;;13.75;2.45;;;;;;;;;;5029179;28;20089;-68
2023/01/01 08:09:03;;;;;;;8.98;1.98;;;;;;;;;;5029147;28;20044;-68
2023/01/01 08:11:29;;;;;;;11.93;1.80;;;;;;;;;;5025327;28;20041;-68
2023/01/01 08:13:55;;;;;;;9.55;2.08;;;;;;;;;;5050167;28;20128;-68
2023/01/01 08:16:21;;;;;;;8.93;1.80;;;;;;;;;;5049380;28;20124;-68
2023/01/01 08:18:46;;;;;;;11.85;1.95;;;;;;;;;;5049097;28;20041;-68
2023/01/01 08:21:12;;;;;;;9.13;1.48;;;;;;;;;;5048564;28;20118;-68
2023/01/01 08:23:38;;;;;;;12.13;1.63;;;;;;;;;;5049840;28;20049;-68
2023/01/01 08:26:04;;;;;;;11.90;1.60;;;;;;;;;;5039474;28;20045;-68
2023/01/01 08:28:30;;;;;;;8.82;1.70;;;;;;;;;;5030214;28;20507;-68
2023/01/01 08:30:56;;;;;;;8.70;1.83;;;;;;;;;;5028839;28;20049;-68
2023/01/01 08:33:24;;;;;;;11.57;1.98;;;;;;;;;;5028926;28;20411;-68
2023/01/01 08:35:50;;;;;;;11.38;2.05;;;;;;;;;;5029815;28;20053;-68
2023/01/01 08:38:16;;;;;;;8.52;2.00;;;;;;;;;;5029136;28;20037;-68
2023/01/01 08:40:42;;;;;;;10.93;2.08;;;;;;;;;;5028545;28;20514;-69
2023/01/01 08:43:08;;;;;;;12.88;2.00;;;;;;;;;;5011834;28;20458;-68
2023/01/01 08:45:33;;;;;;;10.57;1.65;;;;;;;;;;5028763;28;20049;-68
2023/01/01 08:47:59;;;;;;;10.32;1.85;;;;;;;;;;5012374;28;20057;-68
2023/01/01 08:50:25;;;;;;;14.73;2.22;;;;;;;;;;5027994;28;20072;-68
2023/01/01 08:52:51;;;;;;;12.70;2.15;;;;;;;;;;5029651;28;20397;-68
2023/01/01 08:55:17;;;;;;;8.95;1.80;;;;;;;;;;5029985;28;20091;-68
2023/01/01 08:57:46;;;;;;;12.57;2.15;;;;;;;;;;5028064;28;20044;-68
2023/01/01 09:00:13;;;;;;;13.73;2.13;;;;;;;;;;5029753;28;20498;-68
2023/01/01 09:02:39;;;;;;;9.77;1.70;;;;;;;;;;5029691;28;20169;-68
2023/01/01 09:05:05;;;;;;;13.20;2.05;;;;;;;;;;5028115;28;20124;-68
2023/01/01 09:07:31;;;;;;;7.82;1.58;;;;;;;;;;5028416;28;20045;-68
2023/01/01 09:09:57;;;;;;;11.15;1.55;;;;;;;;;;5029477;28;20045;-68
2023/01/01 09:12:23;;;;;;;9.85;1.77;;;;;;;;;;5047469;28;20092;-68
2023/01/01 09:14:49;;;;;;;9.65;1.70;;;;;;;;;;5048245;28;20282;-68
2023/01/01 09:17:15;;;;;;;9.85;2.33;;;;;;;;;;5048062;28;20036;-68
2023/01/01 09:19:41;;;;;;;11.32;1.90;;;;;;;;;;5048758;28;20053;-68
2023/01/01 09:22:10;;;;;;;9.00;1.55;;;;;;;;;;5049365;28;20041;-68
2023/01/01 09:24:36;;;;;;;15.25;2.17;;;;;;;;;;5048193;28;20438;-68
2023/01/01 09:27:02;;;;;;;11.35;2.13;;;;;;;;;;5029859;28;20072;-68
2023/01/01 09:29:28;;;;;;;10.25;1.98;;;;;;;;;;5028031;28;20045;-68
2023/01/01 09:31:54;;;;;;;8.82;2.10;;;;;;;;;;5027861;28;20053;-68
2023/01/01 09:34:20;;;;;;;13.77;2.45;;;;;;;;;;5029083;28;20688;-68
2023/01/01 09:36:46;;;;;;;15.30;2.08;;;;;;;;;;5028064;28;20119;-68
2023/01/01 09:39:17;;;;;;;15.98;2.08;;;;;;;;;;5027811;28;20053;-68
2023/01/01 09:41:52;;;;;;;9.45;2.13;;;;;;;;;;5027116;28;20445;-68
2023/01/01 09:44:37;;;;;;;9.25;2.40;;;;;;;;;;5028159;28;20188;-68
2023/01/01 09:47:05;;;;;;;13.07;2.05;;;;;;;;;;5010998;28;20124;-68
2023/01/01 09:49:36;;;;;;;16.15;2.40;;;;;;;;;;5027452;28;20049;-68
2023/01/01 09:52:04;;;;;;;10.13;1.90;;;;;;;;;;5028856;28;20049;-68
2023/01/01 09:54:36;;;;;;;9.15;1.90;;;;;;;;;;5027873;28;20495;-68
2023/01/01 09:57:05;;;;;;;13.77;2.15;;;;;;;;;;5027613;28;20049;-68
2023/01/01 09:59:31;;;;;;;9.63;1.70;;;;;;;;;;5011470;28;20550;-68
2023/01/01 10:02:16;;;;;;;13.02;1.85;;;;;;;;;;5027364;28;20402;-68
2023/01/01 10:04:54;;;;;;;9.40;2.38;;;;;;;;;;5027476;28;20049;-68
2023/01/01 10:07:24;;;;;;;10.82;1.70;;;;;;;;;;5011012;28;20050;-68
2023/01/01 10:09:50;;;;;;;11.48;2.10;;;;;;;;;;5027457;28;20442;-68
2023/01/01 10:12:24;;;;;;;12.82;1.88;;;;;;;;;;5045508;28;20067;-68
2023/01/01 10:15:01;;;;;;;8.35;2.03;;;;;;;;;;5047205;28;20116;-68
2023/01/01 10:17:32;;;;;;;15.25;2.40;;;;;;;;;;5048923;28;20119;-68
2023/01/01 10:20:01;;;;;;;9.18;1.45;;;;;;;;;;5048067;28;20052;-68
2023/01/01 10:22:34;;;;;;;11.23;2.28;;;;;;;;;;5047079;28;20091;-68
2023/01/01 10:25:06;;;;;;;13.35;2.28;;;;;;;;;;5047977;28;20065;-68
2023/01/01 10:27:44;;;;;;;9.13;1.58;;;;;;;;;;5027132;28;20041;-68
2023/01/01 10:30:21;;;;;;;11.90;2.00;;;;;;;;;;5027390;28;20041;-68
2023/01/01 10:32:48;;;;;;;11.88;2.20;;;;;;;;;;5027255;28;20426;-68
2023/01/01 10:35:22;;;;;;;15.25;2.22;;;;;;;;;;5010539;28;20332;-68
2023/01/01 10:37:51;;;;;;;11.48;2.33;;;;;;;;;;5027279;28;20038;-68
2023/01/01 10:40:19;;;;;;;12.80;2.30;;;;;;;;;;5026980;28;20136;-68
2023/01/01 10:42:49;;;;;;;13.27;2.00;;;;;;;;;;5028542;28;20038;-68
2023/01/01 10:45:16;;;;;;;8.68;2.50;;;;;;;;;;5027082;28;20127;-68
2023/01/01 10:48:01;;;;;;;10.75;1.85;;;;;;;;;;5032228;28;20041;-68
2023/01/01 10:50:40;;;;;;;14.80;1.60;;;;;;;;;;5030978;28;20049;-68
2023/01/01 10:53:18;;;;;;;9.07;2.05;;;;;;;;;;5032143;28;20050;-68
2023/01/01 10:55:48;;;;;;;13.05;1.70;;;;;;;;;;5032129;28;20536;-68
2023/01/01 10:58:32;;;;;;;10.95;2.33;;;;;;;;;;5032079;28;20176;-68
2023/01/01 11:00:59;;;;;;;13.10;2.15;;;;;;;;;;5031636;28;20049;-68
2023/01/01 11:03:25;;;;;;;11.85;2.30;;;;;;;;;;5030523;28;20052;-68
2023/01/01 11:06:11;;;;;;;7.90;1.90;;;;;;;;;;5030766;28;20049;-68
2023/01/01 11:08:38;;;;;;;14.43;1.98;;;;;;;;;;5031033;28;20098;-68
2023/01/01 11:11:05;;;;;;;12.60;2.17;;;;;;;;;;5038789;28;20049;-68
2023/01/01 11:13:32;;;;;;;11.48;2.50;;;;;;;;;;5052001;28;20602;-68
2023/01/01 11:15:58;;;;;;;9.85;1.88;;;;;;;;;;5050347;28;20052;-68
2023/01/01 11:18:34;;;;;;;14.02;2.10;;;;;;;;;;5049905;28;20112;-68
2023/01/01 11:21:01;;;;;;;11.98;2.10;;;;;;;;;;5049820;28;20096;-68
2023/01/01 11:23:39;;;;;;;10.20;2.00;;;;;;;;;;5051713;28;20064;-68
2023/01/01 11:26:18;;;;;;;9.70;1.90;;;;;;;;;;5041597;28;20049;-68
2023/01/01 11:29:01;;;;;;;14.82;2.60;;;;;;;;;;5030692;28;20041;-68
2023/01/01 11:31:38;;;;;;;14.65;2.70;;;;;;;;;;5031374;28;20049;-68
2023/01/01 11:34:05;;;;;;;12.77;2.03;;;;;;;;;;5029712;28;20048;-68
2023/01/01 11:36:33;;;;;;;16.63;2.22;;;;;;;;;;5029742;28;20041;-68
2023/01/01 11:39:05;;;;;;;12.90;2.25;;;;;;;;;;5031246;28;20037;-68
2023/01/01 11:41:40;;;;;;;12.82;1.83;;;;;;;;;;5031075;28;20040;-68
2023/01/01 11:44:07;;;;;;;8.93;2.03;;;;;;;;;;5031641;28;20060;-68
2023/01/01 11:46:33;;;;;;;19.90;2.38;;;;;;;;;;5029955;28;20132;-68
2023/01/01 11:48:59;;;;;;;11.40;2.13;;;;;;;;;;5030980;28;20542;-68
2023/01/01 11:51:29;;;;;;;15.85;2.30;;;;;;;;;;5029669;28;20045;-68
2023/01/01 11:54:21;;;;;;;9.80;1.90;;;;;;;;;;5029726;28;20124;-68
2023/01/01 11:56:49;;;;;;;13.52;2.30;;;;;;;;;;5030594;28;20388;-68
2023/01/01 11:59:17;;;;;;;12.75;1.90;;;;;;;;;;5030681;28;20076;-68
2023/01/01 12:01:54;;;;;;;11.77;2.30;;;;;;;;;;5029486;28;20148;-68
2023/01/01 12:04:37;;;;;;;10.60;1.95;;;;;;;;;;5029807;28;20053;-68
2023/01/01 12:07:09;;;;;;;15.75;1.90;;;;;;;;;;5031053;28;20593;-68
2023/01/01 12:10:01;;;;;;;13.30;2.60;;;;;;;;;;5030637;28;20118;-68
2023/01/01 12:12:33;;;;;;;14.20;2.35;;;;;;;;;;4994188;28;20057;-68
2023/01/01 12:15:03;;;;;;;13.00;2.45;;;;;;;;;;5011144;28;20050;-68
2023/01/01 12:17:48;;;;;;;16.77;2.80;;;;;;;;;;5010283;28;20120;-68
2023/01/01 12:20:22;;;;;;;15.95;2.00;;;;;;;;;;5009413;28;20053;-68
2023/01/01 12:22:48;;;;;;;16.02;2.55;;;;;;;;;;5010634;28;20546;-68
2023/01/01 12:25:15;;;;;;;14.18;2.10;;;;;;;;;;5011731;28;20052;-68
2023/01/01 12:27:48;;;;;;;13.23;2.25;;;;;;;;;;5030074;28;20041;-68
2023/01/01 12:30:13;;;;;;;;;;;;;;;;;;5029455;28;20119;-68
2023/01/01 12:32:48;;;;;;;14.73;2.65;;;;;;;;;;5028188;28;19921;-68
2023/01/01 12:35:31;;;;;;;19.98;3.00;;;;;;;;;;5029132;28;20037;-68
2023/01/01 12:37:57;;;;;;;;;;;;;;;;;;5029377;28;20051;-68
2023/01/01 12:40:39;;;;;;;9.95;2.05;;;;;;;;;;5029857;28;20012;-68
2023/01/01 12:43:10;;;;;;;14.20;2.17;;;;;;;;;;5029619;28;20042;-68
2023/01/01 12:45:36;;;;;;;18.60;3.30;;;;;;;;;;5029126;28;20120;-68
2023/01/01 12:48:24;;;;;;;13.80;2.25;;;;;;;;;;5029564;28;20321;-68
2023/01/01 12:50:53;;;;;;;15.10;2.22;;;;;;;;;;5012592;28;20048;-68
2023/01/01 12:53:43;;;;;;;12.70;2.28;;;;;;;;;;5029712;28;20178;-68
2023/01/01 12:56:23;;;;;;;19.98;2.58;;;;;;;;;;5023108;28;20050;-68
2023/01/01 12:58:55;;;;;;;12.45;2.45;;;;;;;;;;5028308;28;20451;-68
2023/01/01 13:01:27;;;;;;;17.05;2.85;;;;;;;;;;5011945;28;20045;-68
2023/01/01 13:03:56;;;;;;;14.13;2.60;;;;;;;;;;5029543;28;20073;-68
2023/01/01 13:06:26;;;;;;;14.30;2.60;;;;;;;;;;5028721;28;20045;-68
2023/01/01 13:08:55;;;;;;;11.45;2.15;;;;;;;;;;5028625;28;20455;-68
2023/01/01 13:11:24;;;;;;;16.27;2.50;;;;;;;;;;5022808;28;20072;-68
2023/01/01 13:13:50;;;;;;;10.48;2.67;;;;;;;;;;5049308;28;20453;-68
2023/01/01 13:16:31;;;;;;;12.52;2.53;;;;;;;;;;5047726;28;20037;-68
2023/01/01 13:18:57;;;;;;;18.73;2.38;;;;;;;;;;5049059;28;20029;-68
2023/01/01 13:21:24;;;;;;;11.63;2.78;;;;;;;;;;5031936;28;20041;-68
2023/01/01 13:23:51;;;;;;;17.70;2.30;;;;;;;;;;5048952;28;20052;-68
2023/01/01 13:26:17;;;;;;;14.32;2.72;;;;;;;;;;5038186;28;20068;-68
2023/01/01 13:29:08;;;;;;;15.82;2.30;;;;;;;;;;5029118;28;20065;-68
2023/01/01 13:31:37;;;;;;;16.88;2.60;;;;;;;;;;5009382;28;20083;-68
2023/01/01 13:34:22;;;;;;;14.88;2.60;;;;;;;;;;5029100;28;20094;-68
2023/01/01 13:36:48;;;;;;;14.27;2.15;;;;;;;;;;5029444;28;20045;-68
2023/01/01 13:39:34;;;;;;;10.23;2.33;;;;;;;;;;5027550;28;20053;-68
2023/01/01 13:42:00;;;;;;;13.70;2.30;;;;;;;;;;5027677;28;20038;-68
2023/01/01 13:44:26;;;;;;;14.23;2.45;;;;;;;;;;5029154;28;20503;-68
2023/01/01 13:47:11;;;;;;;15.90;3.10;;;;;;;;;;5028979;28;20034;-68
2023/01/01 13:49:55;;;;;;;15.95;3.55;;;;;;;;;;5028645;28;20045;-68
2023/01/01 13:52:27;;;;;;;14.43;2.92;;;;;;;;;;5027591;28;20041;-68
2023/01/01 13:55:12;;;;;;;12.23;2.40;;;;;;;;;;5028763;28;20033;-68
2023/01/01 13:57:58;;;;;;;10.35;2.35;;;;;;;;;;5029096;28;20049;-68
2023/01/01 14:00:27;;;;;;;12.38;2.30;;;;;;;;;;5006888;28;20049;-68
2023/01/01 14:02:57;;;;;;;12.48;2.22;;;;;;;;;;5028823;28;20462;-68
2023/01/01 14:05:32;;;;;;;16.25;2.75;;;;;;;;;;5027417;28;20053;-68
2023/01/01 14:07:58;;;;;;;20.60;2.70;;;;;;;;;;5028582;28;20099;-68
2023/01/01 14:10:24;;;;;;;19.75;3.17;;;;;;;;;;5031865;28;20383;-68
2023/01/01 14:12:51;;;;;;;18.60;3.38;;;;;;;;;;5048493;28;20041;-68
2023/01/01 14:15:24;;;;;;;13.57;2.58;;;;;;;;;;5048344;28;20486;-68
2023/01/01 14:17:51;;;;;;;18.30;3.38;;;;;;;;;;5047405;28;20041;-68
2023/01/01 14:20:19;;;;;;;12.02;3.03;;;;;;;;;;5046992;28;20131;-68
2023/01/01 14:22:46;;;;;;;10.10;2.42;;;;;;;;;;5052472;28;20128;-68
2023/01/01 14:25:16;;;;;;;12.73;2.83;;;;;;;;;;5049396;28;20140;-68
2023/01/01 14:27:43;;;;;;;12.13;2.70;;;;;;;;;;5031715;28;20115;-68
2023/01/01 14:30:18;;;;;;;15.80;3.22;;;;;;;;;;5030687;28;20049;-68
2023/01/01 14:32:45;;;;;;;13.85;2.72;;;;;;;;;;5031092;28;20509;-68
2023/01/01 14:35:16;;;;;;;14.75;2.92;;;;;;;;;;5031416;28;20037;-68
2023/01/01 14:37:42;;;;;;;17.17;3.53;;;;;;;;;;5032199;28;20042;-68
2023/01/01 14:40:28;;;;;;;12.02;3.22;;;;;;;;;;5032465;28;20060;-68
2023/01/01 14:43:04;;;;;;;16.77;3.17;;;;;;;;;;5031262;28;20045;-68
2023/01/01 14:45:31;;;;;;;12.65;3.08;;;;;;;;;;5030440;28;20438;-68
2023/01/01 14:47:57;;;;;;;20.75;3.63;;;;;;;;;;5032385;28;20041;-68
2023/01/01 14:50:25;;;;;;;9.73;3.15;;;;;;;;;;5032083;28;20120;-68
2023/01/01 14:52:53;;;;;;;15.23;4.18;;;;;;;;;;5030412;28;20045;-68